Time;durP1;ratioP1;P1;durP2;ratioP2;P2;SDS_P1;SDS_P2;PMS_P1;PMS_P2;Temp;Humidity;BMP_temperature;BMP_pressure;BME280_temperature;BME280_humidity;BME280_pressure;Samples;Min_cycle;Max_cycle;Signal;HPM_P1;HPM_P2
2022/07/18 04:01:18;;;;;;;9.00;1.10;;;12.50;96.30;;;;;;5633039;23;20523;-76
2022/07/18 04:03:44;;;;;;;2.83;1.00;;;12.70;96.30;;;;;;4994287;28;20907;-76
2022/07/18 04:06:09;;;;;;;2.43;1.00;;;13.10;96.30;;;;;;4994779;28;20169;-76
2022/07/18 04:08:35;;;;;;;3.33;1.33;;;13.10;96.30;;;;;;4994067;28;20224;-76
2022/07/18 04:11:00;;;;;;;3.03;1.33;;;13.50;96.30;;;;;;4994417;28;20280;-77
2022/07/18 04:13:26;;;;;;;4.40;1.37;;;14.00;96.30;;;;;;4994681;28;20177;-76
2022/07/18 04:15:51;;;;;;;3.90;1.17;;;14.60;96.30;;;;;;4995659;28;20210;-78
2022/07/18 04:18:17;;;;;;;2.30;1.10;;;14.90;96.30;;;;;;4994565;28;20175;-79
2022/07/18 04:27:03;;;;;;;5.13;1.20;;;16.30;92.50;;;;;;4897292;29;20605;-76
2022/07/18 04:29:31;;;;;;;5.63;1.30;;;16.90;91.00;;;;;;4914274;29;21027;-76
2022/07/18 04:31:57;;;;;;;2.27;1.30;;;18.00;87.00;;;;;;4975031;28;20205;-75
2022/07/18 04:34:23;;;;;;;2.00;1.20;;;18.60;84.30;;;;;;4993958;28;20440;-76
2022/07/18 04:36:48;;;;;;;4.73;1.30;;;18.60;83.30;;;;;;4993987;28;20441;-76
2022/07/18 04:39:13;;;;;;;3.40;1.10;;;18.40;84.40;;;;;;4984275;28;20277;-79
2022/07/18 04:41:39;;;;;;;3.10;1.53;;;18.10;85.30;;;;;;4993145;28;20545;-79
2022/07/18 04:44:05;;;;;;;3.10;1.27;;;18.70;84.50;;;;;;4994055;28;20660;-79
2022/07/18 04:46:30;;;;;;;2.70;1.33;;;19.50;81.80;;;;;;4994037;28;20177;-79
2022/07/18 04:48:56;;;;;;;1.53;1.10;;;19.40;81.80;;;;;;4992388;28;20178;-79
2022/07/18 04:51:21;;;;;;;2.80;1.30;;;19.30;81.80;;;;;;4984574;28;20209;-79
2022/07/18 04:53:47;;;;;;;2.50;1.27;;;19.90;81.50;;;;;;4973905;28;20891;-80
2022/07/18 04:56:12;;;;;;;2.33;1.17;;;20.20;80.00;;;;;;4973810;28;20174;-79
2022/07/18 04:58:38;;;;;;;2.87;1.40;;;20.30;79.70;;;;;;4971456;28;20662;-80
2022/07/18 05:01:03;;;;;;;7.03;1.40;;;20.60;79.50;;;;;;4973745;28;20229;-79
2022/07/18 05:03:29;;;;;;;3.20;1.40;;;21.30;77.80;;;;;;4973584;28;20210;-76
2022/07/18 05:05:54;;;;;;;1.97;1.10;;;22.40;75.30;;;;;;4976420;28;20188;-79
2022/07/18 05:08:20;;;;;;;4.60;1.40;;;21.80;76.10;;;;;;4982356;28;20166;-77
2022/07/18 05:10:45;;;;;;;2.80;1.07;;;22.40;75.40;;;;;;4989205;28;20295;-77
2022/07/18 05:13:11;;;;;;;1.77;0.90;;;23.30;73.00;;;;;;4979826;28;20797;-75
2022/07/18 05:15:36;;;;;;;2.40;1.20;;;23.00;73.30;;;;;;4971406;28;20197;-76
2022/07/18 05:18:02;;;;;;;1.70;1.10;;;23.00;73.30;;;;;;4966829;28;20249;-75
2022/07/18 05:20:28;;;;;;;4.13;1.30;;;22.70;73.90;;;;;;4954558;28;20181;-75
2022/07/18 05:22:54;;;;;;;3.00;1.03;;;23.10;73.10;;;;;;4954511;29;20681;-75
2022/07/18 05:25:22;;;;;;;2.57;1.03;;;23.10;73.20;;;;;;4953312;29;20544;-75
2022/07/18 05:27:48;;;;;;;1.30;0.97;;;23.60;72.60;;;;;;4953883;28;20237;-76
2022/07/18 05:30:14;;;;;;;4.07;1.37;;;23.80;71.50;;;;;;4967355;28;20421;-76
2022/07/18 05:32:41;;;;;;;3.37;1.33;;;24.20;70.50;;;;;;4973737;28;20193;-76
2022/07/18 05:35:08;;;;;;;3.00;1.27;;;24.70;69.90;;;;;;4973725;28;20449;-78
2022/07/18 05:37:35;;;;;;;5.73;1.30;;;24.20;71.00;;;;;;4969579;28;20476;-78
2022/07/18 05:40:06;;;;;;;2.10;1.33;;;24.80;69.50;;;;;;4973320;28;20413;-78
2022/07/18 05:42:31;;;;;;;1.50;1.10;;;24.70;70.70;;;;;;4974085;28;20465;-79
2022/07/18 05:44:57;;;;;;;2.20;1.20;;;25.20;70.50;;;;;;4974246;28;20413;-76
2022/07/18 05:47:23;;;;;;;3.90;1.30;;;25.10;69.90;;;;;;4966699;28;20197;-78
2022/07/18 05:49:48;;;;;;;1.80;1.27;;;26.40;67.10;;;;;;4957375;28;20262;-78
2022/07/18 05:52:14;;;;;;;3.33;1.50;;;27.10;65.20;;;;;;4969993;28;20244;-78
2022/07/18 05:54:39;;;;;;;2.07;1.13;;;26.70;66.40;;;;;;4967009;28;20519;-78
2022/07/18 05:57:05;;;;;;;2.10;1.20;;;27.10;65.50;;;;;;4969493;28;20240;-76
2022/07/18 05:59:30;;;;;;;1.93;1.07;;;27.50;65.30;;;;;;4965957;28;20193;-80
2022/07/18 06:01:56;;;;;;;3.77;1.37;;;28.50;63.70;;;;;;4971363;28;20623;-78
2022/07/18 06:04:21;;;;;;;4.90;1.60;;;28.20;63.70;;;;;;4970962;28;20181;-78
2022/07/18 06:06:49;;;;;;;1.80;1.10;;;27.60;64.00;;;;;;4970336;28;20194;-80
2022/07/18 06:09:16;;;;;;;6.60;1.60;;;27.90;64.10;;;;;;4969958;28;20170;-77
2022/07/18 06:11:41;;;;;;;2.70;1.20;;;27.60;65.20;;;;;;4970147;28;20441;-80
2022/07/18 06:14:07;;;;;;;3.60;1.40;;;28.50;63.40;;;;;;4969423;28;20763;-80
2022/07/18 06:16:32;;;;;;;2.70;1.40;;;27.80;66.10;;;;;;4966988;28;20185;-81
2022/07/18 06:18:58;;;;;;;1.70;1.10;;;28.60;63.20;;;;;;4965229;28;20181;-81
2022/07/18 06:21:24;;;;;;;5.60;1.70;;;29.10;63.00;;;;;;4957546;28;20217;-81
2022/07/18 06:23:50;;;;;;;2.43;1.37;;;29.10;62.40;;;;;;4957642;28;20261;-81
2022/07/18 06:26:15;;;;;;;2.63;1.30;;;29.70;61.60;;;;;;4962554;28;20238;-82
2022/07/18 06:28:41;;;;;;;4.00;1.47;;;29.00;62.50;;;;;;4971860;28;20285;-81
2022/07/18 06:31:06;;;;;;;2.20;1.20;;;28.40;63.60;;;;;;4973195;28;20705;-82
2022/07/18 06:33:32;;;;;;;1.70;1.10;;;28.80;62.90;;;;;;4976242;28;20699;-82
2022/07/18 06:35:57;;;;;;;3.03;1.30;;;28.20;64.10;;;;;;4991190;28;20252;-82
2022/07/18 06:38:23;;;;;;;5.63;1.37;;;28.30;65.80;;;;;;4992416;28;20671;-82
2022/07/18 06:40:49;;;;;;;3.17;1.37;;;29.60;62.30;;;;;;4992128;28;20255;-82
2022/07/18 06:43:19;;;;;;;5.27;1.37;;;30.30;61.50;;;;;;4980488;28;20216;-82
2022/07/18 06:45:45;;;;;;;1.90;1.27;;;29.70;62.50;;;;;;4971960;28;20188;-82
2022/07/18 06:48:11;;;;;;;3.00;1.50;;;30.00;61.00;;;;;;4971603;28;20924;-82
2022/07/18 06:50:36;;;;;;;1.87;1.10;;;29.90;62.10;;;;;;4973175;28;20413;-82
2022/07/18 06:53:02;;;;;;;2.70;1.30;;;29.30;62.70;;;;;;4971812;28;20595;-82
2022/07/18 06:55:27;;;;;;;3.73;1.50;;;30.00;62.20;;;;;;4975713;28;20239;-83
2022/07/18 06:57:53;;;;;;;5.60;1.73;;;30.30;61.30;;;;;;4972945;28;20261;-82
2022/07/18 07:00:18;;;;;;;3.53;1.30;;;30.60;60.90;;;;;;4973060;28;20277;-82
2022/07/18 07:02:46;;;;;;;4.67;1.13;;;30.80;60.40;;;;;;4975678;28;20224;-80
2022/07/18 07:05:13;;;;;;;4.88;1.60;;;30.30;61.40;;;;;;4972611;28;20184;-81
2022/07/18 07:07:39;;;;;;;3.60;1.15;;;29.50;61.60;;;;;;4970973;28;20174;-81
2022/07/18 07:10:05;;;;;;;2.30;1.10;;;29.30;61.80;;;;;;4973198;28;20689;-82
2022/07/18 07:12:37;;;;;;;2.30;1.42;;;30.00;62.90;;;;;;4971649;28;20208;-79
2022/07/18 07:15:02;;;;;;;3.08;1.25;;;31.50;59.40;;;;;;4977175;28;20543;-78
2022/07/18 07:17:29;;;;;;;5.22;1.10;;;30.90;60.80;;;;;;4979878;28;20260;-79
2022/07/18 07:19:55;;;;;;;5.43;1.48;;;31.50;59.90;;;;;;4977812;28;20178;-79
2022/07/18 07:22:21;;;;;;;6.28;1.90;;;32.50;58.80;;;;;;4976144;28;20596;-78
2022/07/18 07:25:05;;;;;;;3.03;1.33;;;32.90;57.20;;;;;;4977529;28;20213;-81
2022/07/18 07:27:40;;;;;;;1.70;1.00;;;32.60;60.30;;;;;;4966957;28;20193;-78
2022/07/18 07:30:21;;;;;;;6.18;1.20;;;32.20;56.70;;;;;;4990759;28;20177;-79
2022/07/18 07:32:47;;;;;;;3.65;1.52;;;31.90;56.10;;;;;;4997039;28;20176;-79
2022/07/18 07:35:15;;;;;;;7.60;1.33;;;31.20;56.00;;;;;;4998005;28;20180;-78
2022/07/18 07:37:50;;;;;;;2.83;1.20;;;31.90;56.90;;;;;;4997264;28;20260;-79
2022/07/18 07:40:16;;;;;;;5.40;1.35;;;32.10;54.30;;;;;;4998391;28;20224;-79
2022/07/18 07:42:42;;;;;;;4.22;1.42;;;32.10;56.00;;;;;;4997261;28;20205;-78
2022/07/18 07:45:08;;;;;;;5.93;1.23;;;31.90;56.20;;;;;;4997916;28;20247;-77
2022/07/18 07:47:35;;;;;;;3.35;1.52;;;30.70;57.60;;;;;;4996493;28;20236;-79
2022/07/18 07:50:01;;;;;;;2.90;1.30;;;31.80;57.60;;;;;;4999277;28;20173;-77
2022/07/18 07:52:28;;;;;;;3.85;1.30;;;32.20;57.80;;;;;;5013583;28;20224;-82
2022/07/18 07:54:53;;;;;;;5.35;1.40;;;31.10;56.80;;;;;;5018329;28;20181;-79
2022/07/18 07:57:19;;;;;;;2.80;1.58;;;30.20;58.30;;;;;;5010930;28;20180;-78
2022/07/18 07:59:45;;;;;;;3.13;1.20;;;30.60;58.40;;;;;;4992280;28;20542;-78
2022/07/18 08:02:10;;;;;;;5.20;1.30;;;31.50;56.30;;;;;;4976462;28;20628;-77
2022/07/18 08:04:36;;;;;;;9.05;1.30;;;31.70;56.60;;;;;;4976202;28;20531;-77
2022/07/18 08:07:01;;;;;;;3.25;1.20;;;32.20;57.70;;;;;;4976219;28;20184;-77
2022/07/18 08:09:27;;;;;;;3.37;1.27;;;31.30;57.80;;;;;;4974121;28;20177;-78
2022/07/18 08:11:52;;;;;;;4.40;1.80;;;30.90;54.40;;;;;;4974594;28;20703;-77
2022/07/18 08:14:18;;;;;;;2.53;1.27;;;31.20;56.20;;;;;;4974723;28;20192;-77
2022/07/18 08:16:43;;;;;;;2.77;1.50;;;30.90;57.60;;;;;;4975627;28;20253;-77
2022/07/18 08:19:09;;;;;;;2.25;1.17;;;32.10;58.10;;;;;;4974774;28;20186;-79
2022/07/18 08:21:34;;;;;;;3.10;1.30;;;32.20;53.20;;;;;;4974645;28;20268;-77
2022/07/18 08:24:00;;;;;;;3.80;1.27;;;32.40;53.00;;;;;;4974538;28;20260;-77
2022/07/18 08:26:25;;;;;;;2.13;1.17;;;31.50;54.10;;;;;;4973932;28;20280;-78
2022/07/18 08:28:51;;;;;;;5.20;1.27;;;31.10;54.50;;;;;;4973944;28;20646;-77
2022/07/18 08:31:18;;;;;;;2.57;1.13;;;30.40;55.90;;;;;;4974216;28;20189;-78
2022/07/18 08:33:44;;;;;;;5.37;1.83;;;30.90;52.80;;;;;;4974253;28;20553;-79
2022/07/18 08:36:10;;;;;;;2.23;1.10;;;30.60;52.80;;;;;;4975339;28;20416;-77
2022/07/18 08:38:35;;;;;;;3.33;1.07;;;31.20;56.60;;;;;;4974856;28;20185;-77
2022/07/18 08:41:01;;;;;;;2.50;1.13;;;30.90;52.40;;;;;;4988702;28;20668;-77
2022/07/18 08:43:27;;;;;;;4.30;1.53;;;30.40;51.80;;;;;;4994604;28;20201;-77
2022/07/18 08:45:56;;;;;;;3.40;1.33;;;30.20;52.30;;;;;;4993355;28;20181;-77
2022/07/18 08:48:22;;;;;;;3.03;1.20;;;30.50;54.00;;;;;;4994193;28;20495;-77
2022/07/18 08:50:49;;;;;;;2.80;1.00;;;32.10;57.20;;;;;;4984953;28;20452;-77
2022/07/18 08:53:16;;;;;;;2.60;1.20;;;32.00;52.10;;;;;;4974749;28;20513;-80
2022/07/18 08:55:43;;;;;;;2.80;1.50;;;31.40;51.60;;;;;;4973421;28;20453;-77
2022/07/18 08:58:10;;;;;;;3.50;1.13;;;32.40;57.40;;;;;;4974485;28;20504;-78
2022/07/18 09:00:35;;;;;;;5.23;1.20;;;33.00;52.30;;;;;;4974764;28;20405;-77
2022/07/18 09:03:03;;;;;;;3.90;1.43;;;32.50;49.70;;;;;;4974610;28;20449;-77
2022/07/18 09:05:29;;;;;;;7.83;1.50;;;32.10;55.00;;;;;;4974584;28;20176;-77
2022/07/18 09:08:27;;;;;;;4.53;1.30;;;32.60;53.40;;;;;;4978392;28;20424;-77
2022/07/18 09:10:55;;;;;;;5.43;1.37;;;33.00;54.70;;;;;;4961049;28;20452;-77
2022/07/18 09:13:24;;;;;;;1.60;1.30;;;32.90;53.60;;;;;;4993841;28;20409;-79
2022/07/18 09:16:04;;;;;;;6.00;1.50;;;32.90;49.70;;;;;;4993780;28;20474;-79
2022/07/18 09:18:33;;;;;;;7.20;1.50;;;33.30;53.10;;;;;;4993560;28;20476;-78
2022/07/18 09:21:04;;;;;;;4.30;1.33;;;33.60;53.20;;;;;;4993616;28;20468;-77
2022/07/18 09:23:33;;;;;;;2.77;1.30;;;33.70;50.60;;;;;;4992572;28;20228;-77
2022/07/18 09:25:59;;;;;;;10.20;1.33;;;33.50;52.50;;;;;;4993554;28;20417;-77
2022/07/18 09:28:26;;;;;;;2.58;1.00;;;33.50;52.10;;;;;;4992230;28;20570;-77
2022/07/18 09:30:52;;;;;;;3.75;1.30;;;33.70;50.00;;;;;;4993537;28;20661;-80
2022/07/18 09:33:20;;;;;;;3.80;1.00;;;33.60;53.90;;;;;;4992235;28;20189;-77
2022/07/18 09:35:48;;;;;;;2.55;1.13;;;33.90;53.50;;;;;;4992146;28;20177;-77
2022/07/18 09:38:16;;;;;;;2.10;1.23;;;33.70;53.10;;;;;;4992947;28;20271;-77
2022/07/18 09:40:47;;;;;;;2.25;1.23;;;33.50;52.20;;;;;;4984098;28;20716;-78
2022/07/18 09:43:15;;;;;;;2.40;0.90;;;33.30;53.00;;;;;;4992886;28;20212;-78
2022/07/18 09:45:42;;;;;;;2.42;1.10;;;33.10;52.80;;;;;;4993207;28;20161;-78
2022/07/18 09:48:10;;;;;;;3.33;1.20;;;32.90;54.80;;;;;;4992812;28;20196;-78
2022/07/18 09:50:41;;;;;;;1.65;1.13;;;32.90;54.50;;;;;;4991828;28;20173;-77
2022/07/18 09:53:16;;;;;;;2.90;1.20;;;33.30;51.70;;;;;;4993032;28;20595;-77
2022/07/18 09:55:50;;;;;;;3.90;1.33;;;32.80;51.80;;;;;;4993241;28;20226;-77
2022/07/18 09:58:28;;;;;;;1.73;0.80;;;32.60;54.40;;;;;;4978927;28;20193;-78
2022/07/18 10:00:55;;;;;;;2.20;0.90;;;32.80;51.00;;;;;;4973210;28;20201;-78
2022/07/18 10:03:22;;;;;;;2.80;1.30;;;32.40;55.10;;;;;;4972124;28;20611;-78
2022/07/18 10:05:50;;;;;;;2.23;0.90;;;31.80;55.30;;;;;;4973667;28;20417;-78
2022/07/18 10:08:18;;;;;;;2.00;1.10;;;31.60;55.10;;;;;;4973327;28;20405;-77
2022/07/18 10:10:49;;;;;;;1.57;1.13;;;31.90;57.00;;;;;;4976655;28;20201;-77
2022/07/18 10:13:15;;;;;;;5.97;1.37;;;32.30;53.40;;;;;;4972201;28;20197;-78
2022/07/18 10:15:44;;;;;;;3.23;1.10;;;32.30;55.70;;;;;;4973978;28;20416;-77
2022/07/18 10:18:13;;;;;;;2.03;1.40;;;31.90;55.10;;;;;;4973457;28;20416;-77
2022/07/18 10:48:54;;;;;;;6.40;1.40;;;32.50;55.60;;;;;;5821248;23;20236;-77
2022/07/18 10:51:27;;;;;;;5.78;1.65;;;32.80;54.90;;;;;;4984838;28;20190;-79
2022/07/18 10:54:01;;;;;;;3.63;1.23;;;32.90;48.90;;;;;;4976851;28;20648;-80
2022/07/18 10:56:36;;;;;;;2.22;1.20;;;32.40;53.90;;;;;;4980810;28;20339;-80
2022/07/18 10:59:24;;;;;;;2.63;1.50;;;32.00;51.10;;;;;;4976774;28;20740;-77
2022/07/18 11:01:53;;;;;;;5.60;1.40;;;32.50;54.50;;;;;;4976249;28;20259;-79
2022/07/18 11:04:32;;;;;;;2.40;1.20;;;32.10;52.00;;;;;;4979825;28;20181;-78
2022/07/18 11:07:06;;;;;;;3.53;1.30;;;31.40;54.70;;;;;;4969626;28;20209;-77
2022/07/18 11:09:37;;;;;;;3.53;1.80;;;30.70;53.10;;;;;;4978990;28;20424;-79
2022/07/18 11:12:29;;;;;;;2.70;1.23;;;30.20;56.10;;;;;;4978181;28;20468;-80
2022/07/18 11:15:12;;;;;;;3.70;1.60;;;30.90;57.70;;;;;;4979883;28;20429;-79
2022/07/18 11:18:01;;;;;;;1.87;1.20;;;30.30;55.80;;;;;;4980373;28;20425;-80
2022/07/18 11:20:26;;;;;;;10.67;1.20;;;30.00;55.30;;;;;;4973438;28;20417;-80
2022/07/18 11:22:52;;;;;;;3.37;1.30;;;30.10;57.10;;;;;;4971213;28;20467;-80
2022/07/18 11:25:18;;;;;;;4.47;1.50;;;30.40;59.00;;;;;;4975016;28;20182;-80
2022/07/18 11:27:44;;;;;;;6.33;1.20;;;31.20;58.00;;;;;;4989170;28;20172;-77
2022/07/18 11:30:16;;;;;;;7.00;1.77;;;31.60;57.80;;;;;;4996512;28;20748;-77
2022/07/18 11:32:41;;;;;;;1.80;1.20;;;32.00;57.10;;;;;;4984786;28;20544;-78
2022/07/18 11:35:08;;;;;;;3.50;1.40;;;32.30;55.80;;;;;;4976628;28;20773;-78
2022/07/18 11:37:35;;;;;;;1.50;0.93;;;32.30;51.80;;;;;;4964079;28;20296;-78
2022/07/18 11:40:08;;;;;;;3.63;1.33;;;32.40;55.30;;;;;;4959191;28;20201;-78
2022/07/18 11:42:37;;;;;;;1.77;1.13;;;32.80;50.50;;;;;;4969264;28;20202;-80
2022/07/18 11:45:08;;;;;;;2.85;1.63;;;32.70;53.50;;;;;;4980882;28;20544;-78
2022/07/18 11:47:47;;;;;;;3.28;1.70;;;33.10;54.70;;;;;;4975753;28;20512;-78
2022/07/18 11:50:13;;;;;;;3.88;1.88;;;33.20;54.10;;;;;;4979766;28;20194;-82
2022/07/18 11:52:39;;;;;;;2.47;1.20;;;32.70;50.70;;;;;;4971454;28;20729;-80
2022/07/18 11:55:05;;;;;;;2.45;1.23;;;32.70;53.60;;;;;;4961996;28;20661;-80
2022/07/18 11:57:32;;;;;;;3.15;1.27;;;32.80;55.00;;;;;;4964560;28;20191;-81
2022/07/18 11:59:58;;;;;;;2.30;1.20;;;32.60;50.90;;;;;;4976825;28;20863;-77
2022/07/18 12:02:27;;;;;;;2.75;1.30;;;32.30;51.60;;;;;;4973952;28;20233;-78
2022/07/18 12:04:52;;;;;;;3.05;1.30;;;32.50;56.20;;;;;;4975606;28;20178;-77
2022/07/18 12:07:19;;;;;;;2.33;1.05;;;32.80;53.70;;;;;;4974118;28;20181;-79
2022/07/18 12:09:46;;;;;;;3.15;1.35;;;32.00;52.10;;;;;;4974105;28;20182;-77
2022/07/18 12:12:13;;;;;;;3.53;1.37;;;32.10;53.70;;;;;;4975476;28;20194;-77
2022/07/18 12:14:39;;;;;;;9.65;1.65;;;32.10;54.20;;;;;;4975541;28;20190;-77
2022/07/18 12:17:06;;;;;;;5.68;1.20;;;32.10;55.70;;;;;;4975602;28;20173;-77
2022/07/18 12:19:40;;;;;;;2.70;1.50;;;32.40;56.20;;;;;;4975237;28;20181;-77
2022/07/18 12:22:09;;;;;;;1.30;1.02;;;31.00;50.60;;;;;;4974115;28;20303;-77
2022/07/18 12:24:56;;;;;;;2.85;1.33;;;31.60;52.50;;;;;;4975336;28;20677;-77
2022/07/18 12:27:31;;;;;;;3.08;1.50;;;32.10;54.10;;;;;;4975389;28;20208;-77
2022/07/18 12:30:14;;;;;;;3.33;1.02;;;32.20;51.30;;;;;;4975426;28;20172;-77
2022/07/18 12:32:47;;;;;;;3.87;1.40;;;31.20;50.70;;;;;;4975011;28;20209;-77
2022/07/18 12:35:17;;;;;;;2.42;1.10;;;31.90;55.60;;;;;;4975444;28;20162;-80
2022/07/18 12:37:54;;;;;;;4.90;1.10;;;32.50;55.00;;;;;;4963906;28;20213;-78
2022/07/18 12:40:20;;;;;;;6.80;1.60;;;32.60;52.90;;;;;;4959695;28;20244;-77
2022/07/18 12:42:45;;;;;;;2.65;1.10;;;32.80;50.00;;;;;;4963208;28;20201;-77
2022/07/18 12:45:12;;;;;;;2.47;1.45;;;32.50;49.50;;;;;;4973863;28;20174;-77
2022/07/18 12:47:38;;;;;;;2.57;1.40;;;32.10;54.20;;;;;;4974785;28;20683;-76
2022/07/18 12:50:06;;;;;;;2.87;1.73;;;32.20;55.40;;;;;;4974893;28;20190;-77
2022/07/18 12:52:33;;;;;;;5.28;1.30;;;32.30;57.40;;;;;;4961200;28;20214;-78
2022/07/18 12:54:59;;;;;;;5.43;1.52;;;32.80;53.50;;;;;;4961087;28;20178;-78
2022/07/18 12:57:25;;;;;;;6.25;1.40;;;32.80;53.10;;;;;;4963870;28;20769;-81
2022/07/18 12:59:51;;;;;;;6.22;1.33;;;32.30;50.40;;;;;;4961057;28;20201;-79
2022/07/18 13:02:18;;;;;;;2.47;1.13;;;32.30;54.50;;;;;;4961859;28;20236;-78
2022/07/18 13:04:44;;;;;;;2.00;1.20;;;31.60;56.00;;;;;;4954588;28;20815;-77
2022/07/18 13:07:10;;;;;;;2.47;1.30;;;32.10;55.40;;;;;;4955649;28;20823;-77
2022/07/18 13:09:36;;;;;;;6.00;1.30;;;32.50;55.20;;;;;;4965002;28;20173;-79
2022/07/18 13:12:02;;;;;;;2.80;1.13;;;31.60;50.40;;;;;;4973883;28;20516;-76
2022/07/18 13:14:27;;;;;;;1.37;1.03;;;31.10;51.20;;;;;;4973774;28;20182;-76
2022/07/18 13:16:53;;;;;;;3.43;1.13;;;32.00;52.50;;;;;;4973226;28;20185;-76
2022/07/18 13:19:19;;;;;;;2.70;1.20;;;32.40;55.30;;;;;;4974195;28;20624;-77
2022/07/18 13:21:46;;;;;;;3.75;1.00;;;32.50;54.10;;;;;;4976137;28;20276;-82
2022/07/18 13:24:12;;;;;;;4.32;1.50;;;32.40;54.80;;;;;;4978916;28;20182;-81
2022/07/18 13:26:39;;;;;;;5.68;1.13;;;32.70;56.70;;;;;;4978097;28;20546;-81
2022/07/18 13:29:05;;;;;;;3.40;1.20;;;32.80;55.00;;;;;;4976670;28;20173;-82
2022/07/18 13:31:30;;;;;;;7.47;1.48;;;32.80;50.90;;;;;;4976820;28;20198;-82
2022/07/18 13:33:56;;;;;;;2.22;1.25;;;32.70;50.50;;;;;;4977359;28;20257;-82
2022/07/18 13:36:22;;;;;;;1.85;1.00;;;32.90;53.80;;;;;;4977264;28;20224;-81
2022/07/18 13:38:48;;;;;;;1.83;1.10;;;32.90;51.40;;;;;;4976432;28;20166;-82
2022/07/18 13:41:13;;;;;;;5.25;1.20;;;33.00;54.00;;;;;;4977397;28;20201;-81
2022/07/18 13:43:40;;;;;;;2.40;1.00;;;32.80;54.50;;;;;;4976872;28;20562;-81
2022/07/18 13:46:11;;;;;;;3.70;1.20;;;32.50;53.20;;;;;;4975905;28;20177;-81
2022/07/18 13:48:38;;;;;;;3.60;1.20;;;32.20;55.60;;;;;;4976831;28;20431;-81
2022/07/18 13:51:05;;;;;;;2.00;1.10;;;31.80;55.80;;;;;;4976813;28;20440;-80
2022/07/18 13:53:30;;;;;;;1.60;1.13;;;31.40;56.30;;;;;;4977704;28;20790;-81
2022/07/18 13:55:56;;;;;;;2.50;1.20;;;31.60;54.60;;;;;;4977870;28;20417;-81
2022/07/18 13:58:22;;;;;;;1.53;1.10;;;31.80;56.80;;;;;;4976340;28;20185;-82
2022/07/18 14:00:48;;;;;;;1.80;1.23;;;31.80;54.40;;;;;;4976230;28;20222;-81
2022/07/18 14:03:14;;;;;;;2.60;1.30;;;31.70;54.50;;;;;;4977041;28;20223;-81
2022/07/18 14:05:39;;;;;;;4.40;1.50;;;31.70;55.90;;;;;;4977185;28;20512;-82
2022/07/18 14:08:06;;;;;;;2.07;1.17;;;31.40;56.10;;;;;;4976325;28;20224;-81
2022/07/18 14:10:32;;;;;;;1.40;1.00;;;31.20;55.30;;;;;;4976880;28;20661;-82
2022/07/18 14:12:58;;;;;;;3.73;1.10;;;31.40;54.60;;;;;;4977207;28;20432;-82
2022/07/18 14:15:23;;;;;;;2.03;1.27;;;31.00;52.90;;;;;;4977578;28;20257;-82
2022/07/18 14:17:49;;;;;;;3.53;1.73;;;30.00;54.00;;;;;;4975981;28;20185;-81
2022/07/18 14:20:16;;;;;;;1.90;1.40;;;29.40;54.10;;;;;;4977833;28;20181;-81
2022/07/18 14:22:42;;;;;;;1.80;1.30;;;30.10;57.50;;;;;;4977578;28;20206;-82
2022/07/18 14:25:09;;;;;;;1.73;1.30;;;30.50;57.30;;;;;;4982070;28;20905;-82
2022/07/18 14:27:35;;;;;;;3.20;1.27;;;30.90;55.90;;;;;;4980732;28;20929;-77
2022/07/18 14:30:02;;;;;;;5.63;1.33;;;31.00;56.10;;;;;;4979337;28;20419;-78
2022/07/18 14:32:28;;;;;;;5.43;1.60;;;30.80;58.10;;;;;;4978956;28;20228;-77
2022/07/18 14:34:54;;;;;;;4.53;1.40;;;30.70;57.90;;;;;;4979002;28;20452;-77
2022/07/18 14:37:19;;;;;;;2.50;1.40;;;30.60;57.00;;;;;;4980118;28;20184;-77
2022/07/18 14:39:45;;;;;;;2.23;1.50;;;30.30;56.20;;;;;;4983628;28;20180;-80
2022/07/18 14:42:12;;;;;;;4.97;0.97;;;30.20;56.50;;;;;;5000496;28;20754;-77
2022/07/18 14:44:38;;;;;;;12.13;1.30;;;30.20;57.10;;;;;;5000525;28;20193;-77
2022/07/18 14:47:04;;;;;;;1.43;1.00;;;30.30;56.90;;;;;;5000085;28;20419;-79
2022/07/18 14:49:29;;;;;;;3.63;1.40;;;30.50;57.60;;;;;;4999547;28;20220;-78
2022/07/18 14:51:55;;;;;;;4.67;1.30;;;31.10;59.50;;;;;;4985632;28;20747;-77
2022/07/18 14:54:20;;;;;;;7.83;1.40;;;31.20;53.10;;;;;;4980333;28;20666;-77
2022/07/18 14:56:45;;;;;;;2.30;1.10;;;31.40;56.40;;;;;;4987642;28;20192;-81
2022/07/18 14:59:11;;;;;;;4.63;1.43;;;31.50;57.90;;;;;;4986644;28;20178;-81
2022/07/18 15:01:36;;;;;;;3.07;1.10;;;31.40;57.40;;;;;;4986995;28;20197;-81
2022/07/18 15:04:02;;;;;;;2.83;1.80;;;31.20;53.30;;;;;;4987687;28;20182;-81
2022/07/18 15:06:28;;;;;;;4.83;1.20;;;31.20;57.50;;;;;;4986869;28;20212;-81
2022/07/18 15:08:53;;;;;;;5.93;1.30;;;31.30;53.30;;;;;;4982417;28;20176;-78
2022/07/18 15:11:21;;;;;;;2.33;1.40;;;30.60;52.50;;;;;;4990638;28;20616;-78
2022/07/18 15:13:46;;;;;;;6.03;1.40;;;31.00;55.50;;;;;;4981579;28;20189;-78
2022/07/18 15:16:12;;;;;;;3.73;1.27;;;30.80;58.40;;;;;;4979193;28;20486;-77
2022/07/18 15:18:38;;;;;;;2.60;1.17;;;30.90;56.00;;;;;;4979477;28;20247;-77
2022/07/18 15:21:03;;;;;;;2.20;1.50;;;30.50;54.90;;;;;;4979459;28;20220;-78
2022/07/18 15:23:29;;;;;;;2.70;1.40;;;30.40;55.70;;;;;;4977976;28;20668;-77
2022/07/18 15:25:54;;;;;;;3.77;1.37;;;30.00;54.10;;;;;;4979947;28;20184;-78
2022/07/18 15:28:23;;;;;;;1.30;0.93;;;29.80;55.20;;;;;;4979439;28;20253;-77
2022/07/18 15:30:50;;;;;;;2.23;1.20;;;30.00;54.70;;;;;;4978105;28;20773;-78
2022/07/18 15:33:16;;;;;;;3.03;1.20;;;30.00;55.90;;;;;;4979619;28;20412;-78
2022/07/18 15:35:42;;;;;;;2.97;1.63;;;30.00;55.60;;;;;;4977569;28;20413;-79
2022/07/18 15:38:07;;;;;;;2.03;1.30;;;30.10;59.10;;;;;;4976165;28;20185;-78
2022/07/18 15:40:33;;;;;;;2.03;1.30;;;30.20;60.20;;;;;;4975585;28;20433;-79
2022/07/18 15:42:59;;;;;;;3.10;1.37;;;30.00;57.40;;;;;;4978416;28;20284;-78
2022/07/18 15:45:24;;;;;;;2.87;1.30;;;29.80;57.00;;;;;;4969727;28;20262;-77
2022/07/18 15:47:50;;;;;;;2.40;1.30;;;29.70;59.90;;;;;;4955214;29;20179;-78
2022/07/18 15:50:15;;;;;;;3.23;1.30;;;29.50;59.20;;;;;;4956634;29;20198;-80
2022/07/18 15:52:41;;;;;;;4.30;1.43;;;29.20;56.50;;;;;;4955429;29;20550;-78
2022/07/18 15:55:07;;;;;;;1.80;1.50;;;29.30;59.80;;;;;;4956446;29;20178;-79
2022/07/18 15:57:33;;;;;;;2.27;1.10;;;29.30;58.40;;;;;;4959930;28;20524;-78
2022/07/18 15:59:58;;;;;;;4.73;1.80;;;29.40;59.50;;;;;;4968752;28;20423;-80
2022/07/18 16:02:24;;;;;;;7.23;1.37;;;29.50;56.00;;;;;;4975932;28;20216;-81
2022/07/18 16:04:49;;;;;;;2.60;1.27;;;29.50;55.80;;;;;;4976079;28;20543;-78
2022/07/18 16:07:15;;;;;;;2.00;1.17;;;29.50;56.40;;;;;;4973410;28;20209;-79
2022/07/18 16:09:41;;;;;;;3.57;1.20;;;29.50;58.40;;;;;;4964264;28;20190;-79
2022/07/18 16:12:07;;;;;;;2.30;1.40;;;29.00;59.40;;;;;;4961040;28;20543;-81
2022/07/18 16:14:33;;;;;;;3.90;1.20;;;28.70;59.70;;;;;;4970039;28;20174;-82
2022/07/18 16:16:59;;;;;;;2.50;1.00;;;28.90;61.50;;;;;;4970737;28;20425;-80
2022/07/18 16:19:25;;;;;;;8.43;1.30;;;29.00;60.40;;;;;;4964630;28;20852;-80
2022/07/18 16:21:50;;;;;;;3.13;1.23;;;29.00;57.90;;;;;;4967329;28;20271;-79
2022/07/18 16:24:16;;;;;;;3.00;1.17;;;29.00;60.90;;;;;;4965743;28;20421;-83
2022/07/18 16:26:41;;;;;;;4.10;1.20;;;29.10;58.20;;;;;;4976304;28;20638;-82
2022/07/18 16:29:07;;;;;;;5.30;1.00;;;29.10;58.80;;;;;;4976494;28;20509;-82
2022/07/18 16:31:32;;;;;;;3.00;1.20;;;29.10;57.80;;;;;;4975368;28;20212;-82
2022/07/18 16:33:58;;;;;;;5.90;1.47;;;29.20;59.00;;;;;;4967000;28;20186;-81
2022/07/18 16:36:24;;;;;;;1.63;1.10;;;29.00;58.30;;;;;;4977812;28;20174;-81
2022/07/18 16:38:50;;;;;;;3.50;1.50;;;29.00;59.20;;;;;;4978077;28;20166;-77
2022/07/18 16:41:16;;;;;;;2.43;1.33;;;29.00;60.20;;;;;;4972448;28;20206;-81
2022/07/18 16:43:41;;;;;;;2.70;1.00;;;28.90;58.10;;;;;;4964138;28;20461;-82
2022/07/18 16:46:08;;;;;;;2.50;1.30;;;28.50;56.70;;;;;;4983597;28;20170;-83
2022/07/18 16:48:33;;;;;;;3.67;1.53;;;28.60;60.90;;;;;;4967539;28;20300;-81
2022/07/18 16:51:00;;;;;;;1.87;1.20;;;28.60;58.50;;;;;;4994063;28;20436;-81
2022/07/18 16:53:27;;;;;;;2.40;1.20;;;28.30;57.80;;;;;;4995846;28;20639;-82
2022/07/18 16:55:52;;;;;;;3.57;1.33;;;28.20;58.10;;;;;;4995631;28;20916;-83
2022/07/18 16:58:18;;;;;;;5.90;1.40;;;28.20;61.70;;;;;;4995644;28;20416;-82
2022/07/18 17:00:43;;;;;;;4.80;1.10;;;28.30;64.50;;;;;;4993668;28;20172;-82
2022/07/18 17:03:09;;;;;;;5.07;1.30;;;28.40;62.60;;;;;;4993529;28;20735;-80
2022/07/18 17:05:35;;;;;;;1.87;1.20;;;28.40;59.10;;;;;;5043069;23;20252;-69
2022/07/18 17:08:01;;;;;;;5.80;1.20;;;28.30;62.50;;;;;;4970946;28;20209;-69
2022/07/18 17:10:27;;;;;;;2.00;1.17;;;28.20;63.10;;;;;;4972705;28;20456;-69
2022/07/18 17:12:53;;;;;;;2.87;1.20;;;28.20;60.80;;;;;;4973512;28;20181;-69
2022/07/18 17:15:19;;;;;;;4.07;1.37;;;28.20;59.10;;;;;;4963364;28;20217;-69
2022/07/18 17:17:45;;;;;;;2.00;1.20;;;28.20;66.50;;;;;;4964715;28;20638;-69
2022/07/18 17:20:11;;;;;;;3.53;1.40;;;28.00;69.00;;;;;;4966520;28;20184;-68